# Tabular Observed and Forecast Hydrograph Information
#
# Location: Truckee River - Reno (TRRN2)
#
# File Generation Time: 05/04/2026 at 07:10 AM PDT
# Data Interval: 1 Hour
#
# Most Recent Date & Time of Maximum Observed: 05/03/2026 at 09:00 AM PDT
# Maximum Observed Stage: 5.69 Feet
# Maximum Observed Flow: 1043 cfs
#
# Earliest Date & Time of Maximum Forecast: 05/05/2026 at 11:00 AM PDT
# Maximum Forecast Stage: 6.17 Feet
# Maximum Forecast Flow: 1384 cfs
#
# OBSERVED
#
# Date & Time (Local) Stage (Feet) Flow (cfs) Trend Observed Status
# ---------------------------------------------------------------------------------
04/29/2026 07 AM PDT 5.39 859 Normal
04/29/2026 08 AM PDT 5.40 865 + Normal
04/29/2026 09 AM PDT 5.39 859 - Normal
04/29/2026 10 AM PDT 5.34 831 - Normal
04/29/2026 11 AM PDT 5.37 848 + Normal
04/29/2026 12 PM PDT 5.37 848 0 Normal
04/29/2026 01 PM PDT 5.37 848 0 Normal
04/29/2026 02 PM PDT 5.37 848 0 Normal
04/29/2026 03 PM PDT 5.38 853 + Normal
04/29/2026 04 PM PDT 5.40 865 + Normal
04/29/2026 05 PM PDT 5.38 853 - Normal
04/29/2026 06 PM PDT 5.39 859 + Normal
04/29/2026 07 PM PDT 5.39 859 0 Normal
04/29/2026 08 PM PDT 5.38 853 - Normal
04/29/2026 09 PM PDT 5.37 848 - Normal
04/29/2026 10 PM PDT 5.36 842 - Normal
04/29/2026 11 PM PDT 5.36 842 0 Normal
04/30/2026 12 AM PDT 5.37 848 + Normal
04/30/2026 01 AM PDT 5.37 848 0 Normal
04/30/2026 02 AM PDT 5.37 848 0 Normal
04/30/2026 03 AM PDT 5.37 848 0 Normal
04/30/2026 04 AM PDT 5.37 848 0 Normal
04/30/2026 05 AM PDT 5.36 842 - Normal
04/30/2026 06 AM PDT 5.34 831 - Normal
04/30/2026 07 AM PDT 5.35 836 + Normal
04/30/2026 08 AM PDT 5.37 848 + Normal
04/30/2026 09 AM PDT 5.37 848 0 Normal
04/30/2026 10 AM PDT 5.37 848 0 Normal
04/30/2026 11 AM PDT 5.36 842 - Normal
04/30/2026 12 PM PDT 5.37 848 + Normal
04/30/2026 01 PM PDT 5.36 842 - Normal
04/30/2026 02 PM PDT 5.35 836 - Normal
04/30/2026 03 PM PDT 5.35 836 0 Normal
04/30/2026 04 PM PDT 5.35 836 0 Normal
04/30/2026 05 PM PDT 5.35 836 0 Normal
04/30/2026 06 PM PDT 5.35 836 0 Normal
04/30/2026 07 PM PDT 5.35 836 0 Normal
04/30/2026 08 PM PDT 5.39 859 + Normal
04/30/2026 09 PM PDT 5.41 871 + Normal
04/30/2026 10 PM PDT 5.41 871 0 Normal
04/30/2026 11 PM PDT 5.41 871 0 Normal
05/01/2026 12 AM PDT 5.41 871 0 Normal
05/01/2026 01 AM PDT 5.42 877 + Normal
05/01/2026 02 AM PDT 5.42 877 0 Normal
05/01/2026 03 AM PDT 5.43 882 + Normal
05/01/2026 04 AM PDT 5.44 888 + Normal
05/01/2026 05 AM PDT 5.45 894 + Normal
05/01/2026 06 AM PDT 5.46 900 + Normal
05/01/2026 07 AM PDT 5.47 906 + Normal
05/01/2026 08 AM PDT 5.45 894 - Normal
05/01/2026 09 AM PDT 5.46 900 + Normal
05/01/2026 10 AM PDT 5.46 900 0 Normal
05/01/2026 11 AM PDT 5.45 894 - Normal
05/01/2026 12 PM PDT 5.44 888 - Normal
05/01/2026 01 PM PDT 5.43 882 - Normal
05/01/2026 02 PM PDT 5.43 882 0 Normal
05/01/2026 03 PM PDT 5.42 877 - Normal
05/01/2026 04 PM PDT 5.42 877 0 Normal
05/01/2026 05 PM PDT 5.42 877 0 Normal
05/01/2026 06 PM PDT 5.41 871 - Normal
05/01/2026 07 PM PDT 5.41 871 0 Normal
05/01/2026 08 PM PDT 5.41 871 0 Normal
05/01/2026 09 PM PDT 5.40 865 - Normal
05/01/2026 10 PM PDT 5.40 865 0 Normal
05/01/2026 11 PM PDT 5.39 859 - Normal
05/02/2026 12 AM PDT 5.39 859 0 Normal
05/02/2026 01 AM PDT 5.40 865 + Normal
05/02/2026 02 AM PDT 5.40 865 0 Normal
05/02/2026 03 AM PDT 5.41 871 + Normal
05/02/2026 04 AM PDT 5.43 882 + Normal
05/02/2026 05 AM PDT 5.44 888 + Normal
05/02/2026 06 AM PDT 5.45 894 + Normal
05/02/2026 07 AM PDT 5.46 900 + Normal
05/02/2026 08 AM PDT 5.47 906 + Normal
05/02/2026 09 AM PDT 5.47 906 0 Normal
05/02/2026 10 AM PDT 5.46 900 - Normal
05/02/2026 11 AM PDT 5.46 900 0 Normal
05/02/2026 12 PM PDT 5.46 900 0 Normal
05/02/2026 01 PM PDT 5.45 894 - Normal
05/02/2026 02 PM PDT 5.45 894 0 Normal
05/02/2026 03 PM PDT 5.45 894 0 Normal
05/02/2026 04 PM PDT 5.45 894 0 Normal
05/02/2026 05 PM PDT 5.45 894 0 Normal
05/02/2026 06 PM PDT 5.46 900 + Normal
05/02/2026 07 PM PDT 5.48 912 + Normal
05/02/2026 08 PM PDT 5.50 924 + Normal
05/02/2026 09 PM PDT 5.54 948 + Normal
05/02/2026 10 PM PDT 5.56 961 + Normal
05/02/2026 11 PM PDT 5.56 961 0 Normal
05/03/2026 12 AM PDT 5.56 961 0 Normal
05/03/2026 01 AM PDT 5.39 859 - Normal
05/03/2026 02 AM PDT 5.67 1030 + Normal
05/03/2026 03 AM PDT 5.65 1017 - Normal
05/03/2026 04 AM PDT 5.65 1017 0 Normal
05/03/2026 05 AM PDT 5.66 1024 + Normal
05/03/2026 06 AM PDT 5.68 1037 + Normal
05/03/2026 07 AM PDT 5.69 1043 + Normal
05/03/2026 08 AM PDT 5.68 1037 - Normal
05/03/2026 09 AM PDT 5.69 1043 + Normal
05/03/2026 10 AM PDT 5.68 1037 - Normal
05/03/2026 11 AM PDT 5.67 1030 - Normal
05/03/2026 12 PM PDT 5.67 1030 0 Normal
05/03/2026 01 PM PDT 5.66 1024 - Normal
05/03/2026 02 PM PDT 5.65 1017 - Normal
05/03/2026 03 PM PDT 5.64 1011 - Normal
05/03/2026 04 PM PDT 5.63 1004 - Normal
05/03/2026 05 PM PDT 5.47 906 - Normal
05/03/2026 06 PM PDT 5.66 1024 + Normal
05/03/2026 07 PM PDT 5.63 1004 - Normal
05/03/2026 08 PM PDT 5.61 992 - Normal
05/03/2026 09 PM PDT 5.60 985 - Normal
05/03/2026 10 PM PDT 5.62 998 + Normal
05/03/2026 11 PM PDT 5.61 992 - Normal
05/04/2026 12 AM PDT 5.60 985 - Normal
05/04/2026 01 AM PDT 5.57 967 - Normal
05/04/2026 02 AM PDT 5.58 973 + Normal
05/04/2026 03 AM PDT 5.60 985 + Normal
05/04/2026 04 AM PDT 5.63 1004 + Normal
05/04/2026 05 AM PDT 5.65 1017 + Normal
05/04/2026 06 AM PDT 5.65 1017 0 Normal
05/04/2026 07 AM PDT 5.66 1024 + Normal
#
# FORECAST
#
# Date & Time (Local) Stage (Feet) Flow (cfs) Trend Forecast Status
# ---------------------------------------------------------------------------------
05/04/2026 08 AM PDT 5.65 1017 Normal
05/04/2026 09 AM PDT 5.63 1004 - Normal
05/04/2026 10 AM PDT 5.63 1004 0 Normal
05/04/2026 11 AM PDT 5.61 992 - Normal
05/04/2026 12 PM PDT 5.60 985 - Normal
05/04/2026 01 PM PDT 5.60 985 0 Normal
05/04/2026 02 PM PDT 5.60 985 0 Normal
05/04/2026 03 PM PDT 5.59 979 - Normal
05/04/2026 04 PM PDT 5.59 979 0 Normal
05/04/2026 05 PM PDT 5.59 979 0 Normal
05/04/2026 06 PM PDT 5.67 1030 + Normal
05/04/2026 07 PM PDT 5.77 1096 + Normal
05/04/2026 08 PM PDT 5.84 1144 + Normal
05/04/2026 09 PM PDT 5.89 1179 + Normal
05/04/2026 10 PM PDT 5.93 1208 + Normal
05/04/2026 11 PM PDT 5.96 1230 + Normal
05/05/2026 12 AM PDT 5.95 1222 - Normal
05/05/2026 01 AM PDT 5.94 1215 - Normal
05/05/2026 02 AM PDT 5.95 1222 + Normal
05/05/2026 03 AM PDT 5.99 1252 + Normal
05/05/2026 04 AM PDT 6.03 1281 + Normal
05/05/2026 05 AM PDT 6.06 1302 + Normal
05/05/2026 06 AM PDT 6.08 1317 + Normal
05/05/2026 07 AM PDT 6.09 1324 + Normal
05/05/2026 08 AM PDT 6.11 1339 + Normal
05/05/2026 09 AM PDT 6.14 1362 + Normal
05/05/2026 10 AM PDT 6.16 1377 + Normal
05/05/2026 11 AM PDT 6.17 1384 + Normal
05/05/2026 12 PM PDT 6.16 1377 - Normal
05/05/2026 01 PM PDT 6.14 1362 - Normal
05/05/2026 02 PM PDT 6.12 1347 - Normal
05/05/2026 03 PM PDT 6.09 1324 - Normal
05/05/2026 04 PM PDT 6.06 1302 - Normal
05/05/2026 05 PM PDT 6.03 1281 - Normal
05/05/2026 06 PM PDT 6.00 1259 - Normal
05/05/2026 07 PM PDT 5.96 1230 - Normal
05/05/2026 08 PM PDT 5.93 1208 - Normal
05/05/2026 09 PM PDT 5.90 1186 - Normal
05/05/2026 10 PM PDT 5.88 1172 - Normal
05/05/2026 11 PM PDT 5.85 1151 - Normal
05/06/2026 12 AM PDT 5.83 1137 - Normal
05/06/2026 01 AM PDT 5.81 1124 - Normal
05/06/2026 02 AM PDT 5.79 1110 - Normal
05/06/2026 03 AM PDT 5.78 1103 - Normal
05/06/2026 04 AM PDT 5.77 1096 - Normal
05/06/2026 05 AM PDT 5.76 1090 - Normal
05/06/2026 06 AM PDT 5.76 1090 0 Normal
05/06/2026 07 AM PDT 5.75 1083 - Normal
05/06/2026 08 AM PDT 5.75 1083 0 Normal
05/06/2026 09 AM PDT 5.75 1083 0 Normal
05/06/2026 10 AM PDT 5.74 1076 - Normal
05/06/2026 11 AM PDT 5.74 1076 0 Normal
05/06/2026 12 PM PDT 5.73 1070 - Normal
05/06/2026 01 PM PDT 5.73 1070 0 Normal
05/06/2026 02 PM PDT 5.72 1063 - Normal
05/06/2026 03 PM PDT 5.71 1056 - Normal
05/06/2026 04 PM PDT 5.71 1056 0 Normal
05/06/2026 05 PM PDT 5.70 1050 - Normal
05/06/2026 06 PM PDT 5.69 1043 - Normal
05/06/2026 07 PM PDT 5.68 1037 - Normal
05/06/2026 08 PM PDT 5.68 1037 0 Normal
05/06/2026 09 PM PDT 5.68 1037 0 Normal
05/06/2026 10 PM PDT 5.67 1030 - Normal
05/06/2026 11 PM PDT 5.67 1030 0 Normal
05/07/2026 12 AM PDT 5.67 1030 0 Normal
05/07/2026 01 AM PDT 5.67 1030 0 Normal
05/07/2026 02 AM PDT 5.67 1030 0 Normal
05/07/2026 03 AM PDT 5.67 1030 0 Normal
05/07/2026 04 AM PDT 5.67 1030 0 Normal
05/07/2026 05 AM PDT 5.67 1030 0 Normal
05/07/2026 06 AM PDT 5.67 1030 0 Normal
05/07/2026 07 AM PDT 5.67 1030 0 Normal
05/07/2026 08 AM PDT 5.68 1037 + Normal
05/07/2026 09 AM PDT 5.68 1037 0 Normal
05/07/2026 10 AM PDT 5.68 1037 0 Normal
05/07/2026 11 AM PDT 5.68 1037 0 Normal
05/07/2026 12 PM PDT 5.68 1037 0 Normal
05/07/2026 01 PM PDT 5.68 1037 0 Normal
05/07/2026 02 PM PDT 5.68 1037 0 Normal
05/07/2026 03 PM PDT 5.67 1030 - Normal
05/07/2026 04 PM PDT 5.67 1030 0 Normal
05/07/2026 05 PM PDT 5.67 1030 0 Normal
05/07/2026 06 PM PDT 5.66 1024 - Normal
05/07/2026 07 PM PDT 5.66 1024 0 Normal
05/07/2026 08 PM PDT 5.65 1017 - Normal
05/07/2026 09 PM PDT 5.65 1017 0 Normal
05/07/2026 10 PM PDT 5.65 1017 0 Normal
05/07/2026 11 PM PDT 5.64 1011 - Normal
05/08/2026 12 AM PDT 5.64 1011 0 Normal
05/08/2026 01 AM PDT 5.64 1011 0 Normal
05/08/2026 02 AM PDT 5.64 1011 0 Normal
05/08/2026 03 AM PDT 5.64 1011 0 Normal
05/08/2026 04 AM PDT 5.64 1011 0 Normal
05/08/2026 05 AM PDT 5.65 1017 + Normal
05/08/2026 06 AM PDT 5.65 1017 0 Normal
05/08/2026 07 AM PDT 5.65 1017 0 Normal
05/08/2026 08 AM PDT 5.66 1024 + Normal
05/08/2026 09 AM PDT 5.66 1024 0 Normal
05/08/2026 10 AM PDT 5.66 1024 0 Normal
05/08/2026 11 AM PDT 5.66 1024 0 Normal
05/08/2026 12 PM PDT 5.66 1024 0 Normal
05/08/2026 01 PM PDT 5.66 1024 0 Normal
05/08/2026 02 PM PDT 5.65 1017 - Normal
05/08/2026 03 PM PDT 5.65 1017 0 Normal
05/08/2026 04 PM PDT 5.65 1017 0 Normal
05/08/2026 05 PM PDT 5.64 1011 - Normal
05/08/2026 06 PM PDT 5.63 1004 - Normal
05/08/2026 07 PM PDT 5.63 1004 0 Normal
05/08/2026 08 PM PDT 5.63 1004 0 Normal
05/08/2026 09 PM PDT 5.62 998 - Normal
05/08/2026 10 PM PDT 5.62 998 0 Normal
05/08/2026 11 PM PDT 5.62 998 0 Normal
05/09/2026 12 AM PDT 5.62 998 0 Normal
05/09/2026 01 AM PDT 5.62 998 0 Normal
05/09/2026 02 AM PDT 5.62 998 0 Normal
05/09/2026 03 AM PDT 5.62 998 0 Normal
05/09/2026 04 AM PDT 5.62 998 0 Normal
05/09/2026 05 AM PDT 5.62 998 0 Normal
#
# NOTE 1: Stages are rounded to the nearest hundredth (.01) of a foot.
# NOTE 2: Flows are rounded to the nearest (1) cfs.
# NOTE 3: Trends are determined using hourly change in unrounded stage and flow.
# NOTE 4: Maximum Values are determined using unrounded stage and flow.
|